LavenderCAM.net
Leatherhead Weather
 
Leatherhead Weather
 
 





Aviation weather for

London Heathrow (EGLL) and London Gatwick (EGKK)



London Heathrow (EGLL) METAR / Surface Actual
London / Heathrow Airport, United Kingdom (EGLL) 51-29N 000-27W 0M
Mar 20, 2019 - 10:50 AM EDT / 2019.03.20 1450 UTC
Wind: from the WSW (240 degrees) at 10 MPH (9 KT):0
Visibility: greater than 7 mile(s):0
Sky conditions: overcast
Temperature: 55 F (13 C)
Dew Point: 46 F (8 C)
Relative Humidity: 71%
Pressure (altimeter): 30.47 in. Hg (1032 hPa)
ob: EGLL 201450Z AUTO 24009KT 9999 BKN020 OVC026 13/08 Q1032 NOSIG
cycle: 15
London Heathrow (EGLL) TAF / Forecast
2019/03/20 12:06
TAF EGLL 201057Z 2012/2118 24008KT 9999 BKN012 
      BECMG 2012/2014 BKN025 
      BECMG 2023/2102 BKN010 
      TEMPO 2023/2111 7000 BKN006 PROB30 
      TEMPO 2102/2108 4000 BR BKN004 
      BECMG 2112/2115 BKN015


London Gatwick (EGKK) METAR / Surface Actual
London / Gatwick Airport, United Kingdom (EGKK) 51-09N 000-11W 0M
Mar 20, 2019 - 10:50 AM EDT / 2019.03.20 1450 UTC
Wind: from the SW (230 degrees) at 9 MPH (8 KT):0
Visibility: greater than 7 mile(s):0
Sky conditions: overcast
Temperature: 53 F (12 C)
Dew Point: 48 F (9 C)
Relative Humidity: 81%
Pressure (altimeter): 30.47 in. Hg (1032 hPa)
ob: EGKK 201450Z 23008KT 9999 OVC018 12/09 Q1032
cycle: 15
London Gatwick (EGKK) TAF / Forecast
2019/03/20 12:06
TAF TAF EGKK 201104Z 2012/2118 22004KT 9999 BKN020 PROB30 
      TEMPO 2014/2019 BKN014 PROB30 
      TEMPO 2019/2023 6000 BKN003 
      TEMPO 2023/2109 4000 BR BKN003 PROB30 
      TEMPO 2100/2108 1200 BKN001 
      TEMPO 2109/2112 BKN010